Time;durP1;ratioP1;P1;durP2;ratioP2;P2;SDS_P1;SDS_P2;PMS_P1;PMS_P2;Temp;Humidity;BMP_temperature;BMP_pressure;BME280_temperature;BME280_humidity;BME280_pressure;Samples;Min_cycle;Max_cycle;Signal;HPM_P1;HPM_P2
2024/01/03 00:01:19;;;;;;;10.25;1.90;;;9.70;99.90;;;;;;5033424;28;20558;-68
2024/01/03 00:03:45;;;;;;;7.30;2.10;;;9.60;99.90;;;;;;5033322;28;20048;-68
2024/01/03 00:06:11;;;;;;;6.10;2.15;;;9.60;99.90;;;;;;5005108;28;20037;-68
2024/01/03 00:08:38;;;;;;;4.97;1.83;;;9.60;99.90;;;;;;5004277;28;20046;-68
2024/01/03 00:11:04;;;;;;;5.82;1.30;;;9.60;99.90;;;;;;5018605;28;20034;-68
2024/01/03 00:13:32;;;;;;;6.53;1.58;;;9.60;99.90;;;;;;5014724;28;20042;-68
2024/01/03 00:16:04;;;;;;;2.83;0.88;;;9.60;99.90;;;;;;5010368;28;20562;-68
2024/01/03 00:18:34;;;;;;;3.97;0.75;;;9.60;99.90;;;;;;5007630;28;20041;-68
2024/01/03 00:21:00;;;;;;;2.83;0.75;;;9.50;99.90;;;;;;5007120;28;20048;-68
2024/01/03 00:23:36;;;;;;;3.05;1.10;;;9.50;99.90;;;;;;5028455;28;20464;-68
2024/01/03 00:26:01;;;;;;;2.67;0.85;;;9.40;99.90;;;;;;5025457;28;20401;-68
2024/01/03 00:28:27;;;;;;;4.88;1.30;;;9.40;99.90;;;;;;5021812;28;20037;-68
2024/01/03 00:30:53;;;;;;;4.30;0.93;;;9.40;99.90;;;;;;5004555;28;20045;-68
2024/01/03 00:33:18;;;;;;;5.53;1.00;;;9.40;99.90;;;;;;5005571;28;20079;-68
2024/01/03 00:35:44;;;;;;;5.40;0.90;;;9.40;99.90;;;;;;5024346;28;20543;-68
2024/01/03 00:38:10;;;;;;;7.18;1.20;;;9.40;99.90;;;;;;5043700;28;20653;-68
2024/01/03 00:40:55;;;;;;;2.75;0.80;;;9.30;99.90;;;;;;5048241;28;20080;-68
2024/01/03 00:43:20;;;;;;;3.38;0.80;;;9.30;99.90;;;;;;5040626;28;20535;-68
2024/01/03 00:45:48;;;;;;;5.93;1.05;;;9.30;99.90;;;;;;5046494;28;20064;-68
2024/01/03 00:48:18;;;;;;;2.88;1.20;;;9.30;99.90;;;;;;5046129;28;20040;-68
2024/01/03 00:50:43;;;;;;;3.65;1.17;;;9.20;99.90;;;;;;5026771;28;20045;-68
2024/01/03 00:53:10;;;;;;;3.92;1.02;;;9.20;99.90;;;;;;5033235;28;20043;-68
2024/01/03 00:55:36;;;;;;;4.80;1.10;;;9.20;99.90;;;;;;5022126;28;20042;-68
2024/01/03 00:58:02;;;;;;;7.45;1.38;;;9.30;99.90;;;;;;5034668;28;20099;-68
2024/01/03 01:00:28;;;;;;;7.25;1.25;;;9.20;99.90;;;;;;5042514;28;20562;-68
2024/01/03 01:02:54;;;;;;;8.73;1.52;;;9.20;99.90;;;;;;5046032;28;20046;-68
2024/01/03 01:05:20;;;;;;;4.00;1.33;;;9.20;99.90;;;;;;5046049;28;20024;-68
2024/01/03 01:07:45;;;;;;;7.75;1.50;;;9.20;99.90;;;;;;5043231;28;20037;-68
2024/01/03 01:10:11;;;;;;;5.03;1.15;;;9.20;99.90;;;;;;5032835;28;20041;-68
2024/01/03 01:12:36;;;;;;;8.57;1.42;;;9.10;99.90;;;;;;5033039;28;20102;-68
2024/01/03 01:15:02;;;;;;;5.68;1.30;;;9.10;99.90;;;;;;5022772;28;20048;-68
2024/01/03 01:17:28;;;;;;;6.20;1.25;;;9.10;99.90;;;;;;5017755;28;20048;-68
2024/01/03 01:19:53;;;;;;;6.75;1.38;;;9.00;99.90;;;;;;5039971;28;20060;-68
2024/01/03 01:22:19;;;;;;;5.35;1.58;;;9.00;99.90;;;;;;5020680;28;20117;-68
2024/01/03 01:24:45;;;;;;;7.15;1.30;;;9.00;99.90;;;;;;5031932;28;20094;-68
2024/01/03 01:27:10;;;;;;;8.77;1.35;;;9.00;99.90;;;;;;5033266;28;20087;-68
2024/01/03 01:29:36;;;;;;;9.38;2.05;;;9.00;99.90;;;;;;5045534;28;20083;-68
2024/01/03 01:32:02;;;;;;;5.97;1.27;;;9.00;99.90;;;;;;5050270;28;20037;-68
2024/01/03 01:34:27;;;;;;;8.43;1.38;;;9.00;99.90;;;;;;5025354;28;20055;-68
2024/01/03 01:36:53;;;;;;;6.00;1.30;;;9.00;99.90;;;;;;5023712;28;20401;-68
2024/01/03 01:39:19;;;;;;;10.30;1.50;;;9.10;99.90;;;;;;5032546;28;20056;-68
2024/01/03 01:41:44;;;;;;;9.93;1.95;;;9.00;99.90;;;;;;5043252;28;20540;-68
2024/01/03 01:44:10;;;;;;;6.47;1.40;;;9.00;99.90;;;;;;5038867;28;20029;-68
2024/01/03 01:46:37;;;;;;;6.53;1.60;;;9.00;99.90;;;;;;5022993;28;20045;-68
2024/01/03 01:49:07;;;;;;;9.63;1.60;;;9.00;99.90;;;;;;5013610;28;20033;-68
2024/01/03 01:51:35;;;;;;;10.13;1.63;;;9.10;99.90;;;;;;5027148;28;20041;-68
2024/01/03 01:54:01;;;;;;;4.80;1.23;;;9.10;99.90;;;;;;5005239;28;20102;-68
2024/01/03 01:56:28;;;;;;;5.40;1.30;;;9.20;99.90;;;;;;5030643;28;20041;-68
2024/01/03 01:58:54;;;;;;;6.60;1.05;;;9.20;99.90;;;;;;5023121;28;20105;-68
2024/01/03 02:01:21;;;;;;;7.85;1.40;;;9.10;99.90;;;;;;5029411;28;20171;-68
2024/01/03 02:03:48;;;;;;;3.78;1.00;;;9.20;99.90;;;;;;5003252;28;20050;-68
2024/01/03 02:06:15;;;;;;;7.93;1.20;;;9.20;99.90;;;;;;5030913;28;20087;-68
2024/01/03 02:08:41;;;;;;;3.70;0.95;;;9.30;99.90;;;;;;5031585;28;20056;-68
2024/01/03 02:11:07;;;;;;;5.00;0.70;;;9.30;99.90;;;;;;5018491;28;20496;-68
2024/01/03 02:13:32;;;;;;;6.35;1.33;;;9.40;99.90;;;;;;5026263;28;22094;-68
2024/01/03 02:15:58;;;;;;;4.22;1.20;;;9.40;99.90;;;;;;5013659;28;20052;-68
2024/01/03 02:18:26;;;;;;;3.30;1.02;;;9.40;99.90;;;;;;5023106;28;20033;-68
2024/01/03 02:20:53;;;;;;;4.10;1.10;;;9.40;99.90;;;;;;5011023;28;20046;-68
2024/01/03 02:23:18;;;;;;;3.35;1.00;;;9.30;99.90;;;;;;5006552;28;20065;-68
2024/01/03 02:25:44;;;;;;;4.10;1.00;;;9.30;99.90;;;;;;5013101;28;20076;-68
2024/01/03 02:28:10;;;;;;;4.60;1.00;;;9.40;99.90;;;;;;5013729;28;20042;-68
2024/01/03 02:30:36;;;;;;;4.22;0.88;;;9.40;99.90;;;;;;4996857;28;20052;-68
2024/01/03 02:33:02;;;;;;;3.75;1.35;;;9.40;99.90;;;;;;5020485;28;20441;-68
2024/01/03 02:35:27;;;;;;;5.03;1.08;;;9.40;99.90;;;;;;5030862;28;20489;-67
2024/01/03 02:37:53;;;;;;;4.40;0.80;;;9.40;99.90;;;;;;5009450;28;20128;-67
2024/01/03 02:40:19;;;;;;;2.65;0.80;;;9.30;99.90;;;;;;5012508;28;20489;-68
2024/01/03 02:42:44;;;;;;;2.85;0.70;;;9.30;99.90;;;;;;5018808;28;20560;-68
2024/01/03 02:45:10;;;;;;;2.15;0.77;;;9.30;99.90;;;;;;5001701;28;20061;-68
2024/01/03 02:47:36;;;;;;;4.82;1.10;;;9.30;99.90;;;;;;4996181;28;20042;-68
2024/01/03 02:50:01;;;;;;;3.78;1.10;;;9.30;99.90;;;;;;5013243;28;20040;-68
2024/01/03 02:52:27;;;;;;;4.60;1.15;;;9.30;99.90;;;;;;5015799;28;20464;-68
2024/01/03 02:54:53;;;;;;;5.50;1.50;;;9.20;99.90;;;;;;4999892;28;20050;-67
2024/01/03 02:57:19;;;;;;;1.95;0.90;;;9.20;99.90;;;;;;5010779;28;20038;-68
2024/01/03 02:59:44;;;;;;;2.90;1.10;;;9.20;99.90;;;;;;5009437;28;20037;-68
2024/01/03 03:02:10;;;;;;;7.43;1.30;;;9.20;99.90;;;;;;4997058;28;20131;-68
2024/01/03 03:04:35;;;;;;;4.13;1.33;;;9.10;99.90;;;;;;5015634;28;20042;-68
2024/01/03 03:07:01;;;;;;;5.72;1.50;;;9.10;99.90;;;;;;5006999;28;20249;-68
2024/01/03 03:09:26;;;;;;;7.55;1.98;;;9.10;99.90;;;;;;5016296;28;20039;-68
2024/01/03 03:11:52;;;;;;;5.85;1.63;;;9.20;99.90;;;;;;5015136;28;20042;-68
2024/01/03 03:14:18;;;;;;;6.13;1.70;;;9.10;99.90;;;;;;5016982;28;20037;-68
2024/01/03 03:16:43;;;;;;;7.22;1.70;;;9.20;99.90;;;;;;5008307;28;20048;-68
2024/01/03 03:19:09;;;;;;;6.68;1.67;;;9.20;99.90;;;;;;5006087;28;20049;-68
2024/01/03 03:21:35;;;;;;;7.55;1.70;;;9.20;99.90;;;;;;5033625;28;20049;-68
2024/01/03 03:24:01;;;;;;;13.35;2.25;;;9.20;99.90;;;;;;5026167;28;20044;-68
2024/01/03 03:26:27;;;;;;;9.80;2.17;;;9.20;99.90;;;;;;5023614;28;20124;-68
2024/01/03 03:28:52;;;;;;;14.77;2.70;;;9.30;99.90;;;;;;5034455;28;20112;-68
2024/01/03 03:31:18;;;;;;;12.25;2.38;;;9.30;99.90;;;;;;5015872;28;20038;-68
2024/01/03 03:33:43;;;;;;;13.80;2.72;;;9.30;99.90;;;;;;5011775;28;20056;-68
2024/01/03 03:36:13;;;;;;;22.48;3.40;;;9.30;99.90;;;;;;5010588;28;20037;-68
2024/01/03 03:38:39;;;;;;;18.08;3.33;;;9.30;99.90;;;;;;5017183;28;20068;-68
2024/01/03 03:41:14;;;;;;;15.40;3.60;;;9.30;99.90;;;;;;5015658;28;20053;-68
2024/01/03 03:43:40;;;;;;;17.90;2.85;;;9.40;99.90;;;;;;5033660;28;20041;-68
2024/01/03 03:46:10;;;;;;;13.82;2.63;;;9.40;99.90;;;;;;5030892;28;20109;-68
2024/01/03 03:48:36;;;;;;;17.83;3.22;;;9.50;99.90;;;;;;5033298;28;20456;-68
2024/01/03 03:51:03;;;;;;;12.32;2.50;;;9.50;99.90;;;;;;5027834;28;20037;-68
2024/01/03 03:53:28;;;;;;;12.52;2.30;;;9.50;99.90;;;;;;5005120;28;20532;-68
2024/01/03 03:55:54;;;;;;;14.27;2.13;;;9.50;99.90;;;;;;5024290;28;20038;-68
2024/01/03 03:58:20;;;;;;;15.57;2.50;;;9.60;99.90;;;;;;5009739;28;20042;-67
2024/01/03 04:00:45;;;;;;;14.02;2.17;;;9.70;99.90;;;;;;5014588;28;20121;-68
2024/01/03 04:03:11;;;;;;;12.55;3.03;;;9.70;99.90;;;;;;5016261;28;20029;-68
2024/01/03 04:05:38;;;;;;;13.38;2.63;;;9.70;99.90;;;;;;5009126;28;20049;-68
2024/01/03 04:08:04;;;;;;;15.43;2.97;;;9.80;99.90;;;;;;5030721;28;20054;-67
2024/01/03 04:10:30;;;;;;;15.32;2.53;;;9.80;99.90;;;;;;5016422;28;20033;-67
2024/01/03 04:12:56;;;;;;;17.70;2.60;;;9.80;99.90;;;;;;5008003;28;20468;-68
2024/01/03 04:15:23;;;;;;;13.55;2.67;;;9.80;99.90;;;;;;5034183;28;20040;-67
2024/01/03 04:17:49;;;;;;;15.98;2.72;;;9.80;99.90;;;;;;5016738;28;20179;-68
2024/01/03 04:20:15;;;;;;;15.48;2.60;;;9.70;99.90;;;;;;5029182;28;20464;-68
2024/01/03 04:22:43;;;;;;;18.48;2.72;;;9.70;99.90;;;;;;5013880;28;20041;-68
2024/01/03 04:25:09;;;;;;;20.35;2.88;;;9.70;99.90;;;;;;5033727;28;20101;-68
2024/01/03 04:27:36;;;;;;;13.15;3.28;;;9.70;99.90;;;;;;4999179;28;20049;-68
2024/01/03 04:30:02;;;;;;;19.25;2.97;;;9.60;99.90;;;;;;5033180;28;20055;-68
2024/01/03 04:32:27;;;;;;;12.23;2.90;;;9.60;99.90;;;;;;5022471;28;20044;-68
2024/01/03 04:34:53;;;;;;;10.82;2.95;;;9.50;99.90;;;;;;5007973;28;20045;-68
2024/01/03 04:37:18;;;;;;;17.58;2.70;;;9.50;99.90;;;;;;5015844;28;20048;-68
2024/01/03 04:39:44;;;;;;;16.25;3.20;;;9.50;99.90;;;;;;5017343;28;20059;-68
2024/01/03 04:42:10;;;;;;;18.27;3.20;;;9.50;99.90;;;;;;5032044;28;20493;-68
2024/01/03 04:44:36;;;;;;;17.10;2.92;;;9.50;99.90;;;;;;5015547;28;20084;-68
2024/01/03 04:47:02;;;;;;;18.33;3.38;;;9.40;99.90;;;;;;5023674;28;20059;-68
2024/01/03 04:49:31;;;;;;;15.13;2.80;;;9.50;99.90;;;;;;5010930;28;20053;-68
2024/01/03 04:51:56;;;;;;;17.50;2.78;;;9.50;99.90;;;;;;5009190;28;20038;-68
2024/01/03 04:54:22;;;;;;;18.63;2.72;;;9.50;99.90;;;;;;5015838;28;20394;-68
2024/01/03 04:56:48;;;;;;;14.07;2.83;;;9.60;99.90;;;;;;5016950;28;20049;-68
2024/01/03 04:59:13;;;;;;;13.85;2.85;;;9.70;99.90;;;;;;5014921;28;20047;-67
2024/01/03 05:01:40;;;;;;;14.68;3.05;;;9.70;99.90;;;;;;5023299;28;20060;-68
2024/01/03 05:04:06;;;;;;;19.55;2.95;;;9.70;99.90;;;;;;5025918;28;20053;-68
2024/01/03 05:06:32;;;;;;;17.98;3.05;;;9.80;99.90;;;;;;4997422;28;20045;-68
2024/01/03 05:08:58;;;;;;;14.13;2.88;;;9.80;99.90;;;;;;5015803;28;20452;-68
2024/01/03 05:11:23;;;;;;;16.33;3.17;;;9.80;99.90;;;;;;5011567;28;20026;-68
2024/01/03 05:13:49;;;;;;;18.80;3.60;;;9.80;99.90;;;;;;5000026;28;20034;-68
2024/01/03 05:16:14;;;;;;;17.63;3.33;;;9.80;99.90;;;;;;5007034;28;20046;-68
2024/01/03 05:18:40;;;;;;;15.55;3.22;;;9.90;99.90;;;;;;5026254;28;20056;-68
2024/01/03 05:21:06;;;;;;;25.45;3.50;;;9.90;99.90;;;;;;5026282;28;20065;-68
2024/01/03 05:23:32;;;;;;;18.23;3.00;;;9.90;99.90;;;;;;5015591;28;20509;-67
2024/01/03 05:25:58;;;;;;;19.30;3.38;;;9.90;99.90;;;;;;5010840;28;20040;-68
2024/01/03 05:28:23;;;;;;;15.20;3.42;;;9.90;99.90;;;;;;5019997;28;20540;-68
2024/01/03 05:30:49;;;;;;;16.88;3.22;;;10.00;99.90;;;;;;5002170;28;20048;-68
2024/01/03 05:33:15;;;;;;;18.33;3.03;;;9.90;99.90;;;;;;5025904;28;20465;-68
2024/01/03 05:35:40;;;;;;;20.50;3.28;;;9.90;99.90;;;;;;5026775;28;20095;-67
2024/01/03 05:38:06;;;;;;;22.95;3.33;;;9.90;99.90;;;;;;5025755;28;20049;-67
2024/01/03 05:40:32;;;;;;;23.42;4.25;;;9.90;99.90;;;;;;5023980;22;20021;-66
2024/01/03 05:42:57;;;;;;;17.65;3.20;;;9.90;99.90;;;;;;5011994;28;20037;-66
2024/01/03 05:45:23;;;;;;;14.65;2.75;;;9.90;99.90;;;;;;5012443;28;20490;-66
2024/01/03 05:47:48;;;;;;;21.02;3.67;;;10.00;99.90;;;;;;5016263;28;20041;-66
2024/01/03 05:50:14;;;;;;;20.30;3.50;;;9.90;99.90;;;;;;5020188;28;20460;-66
2024/01/03 05:52:39;;;;;;;17.20;3.40;;;9.90;99.90;;;;;;5006305;28;20192;-66
2024/01/03 05:55:06;;;;;;;18.48;3.50;;;10.00;99.90;;;;;;5017160;28;20038;-66
2024/01/03 05:57:35;;;;;;;18.27;2.95;;;9.90;99.90;;;;;;5012128;28;20050;-66
2024/01/03 06:00:01;;;;;;;17.63;3.13;;;9.90;99.90;;;;;;5010628;28;20136;-66
2024/01/03 06:02:27;;;;;;;16.92;3.70;;;9.90;99.90;;;;;;5010061;28;20039;-66
2024/01/03 06:04:56;;;;;;;18.77;3.60;;;9.90;99.90;;;;;;4999321;28;20165;-66
2024/01/03 06:07:25;;;;;;;18.92;3.55;;;9.90;99.90;;;;;;5002817;28;20042;-66
2024/01/03 06:09:51;;;;;;;14.45;3.00;;;9.80;99.90;;;;;;5000436;28;20042;-66
2024/01/03 06:12:16;;;;;;;15.10;3.45;;;9.70;99.90;;;;;;4998725;28;20125;-66
2024/01/03 06:14:42;;;;;;;19.60;3.70;;;9.80;99.90;;;;;;5003673;28;20081;-67
2024/01/03 06:17:07;;;;;;;18.13;3.03;;;9.70;99.90;;;;;;5010270;28;20042;-66
2024/01/03 06:19:33;;;;;;;18.00;2.78;;;9.70;99.90;;;;;;5010969;28;20125;-66
2024/01/03 06:21:58;;;;;;;14.20;3.03;;;9.70;99.90;;;;;;5010710;28;20502;-66
2024/01/03 06:24:24;;;;;;;18.50;2.80;;;9.80;99.90;;;;;;5013960;28;20124;-66
2024/01/03 06:26:50;;;;;;;17.25;2.70;;;9.80;99.90;;;;;;5014104;28;20486;-66
2024/01/03 06:29:16;;;;;;;15.60;3.40;;;9.90;99.90;;;;;;5014574;28;20108;-66
2024/01/03 06:31:41;;;;;;;18.05;2.60;;;9.90;99.90;;;;;;5014592;28;20096;-66
2024/01/03 06:34:07;;;;;;;18.00;3.05;;;9.90;99.90;;;;;;5014893;28;20042;-66
2024/01/03 06:36:33;;;;;;;16.98;3.25;;;9.90;99.90;;;;;;5009416;28;20572;-66
2024/01/03 06:38:58;;;;;;;15.70;2.95;;;9.90;99.90;;;;;;5013524;28;20532;-67
2024/01/03 06:41:24;;;;;;;15.52;2.42;;;9.90;99.90;;;;;;5007814;28;20041;-67
2024/01/03 06:43:49;;;;;;;13.63;2.90;;;9.90;99.90;;;;;;5011301;28;20072;-67
2024/01/03 06:46:15;;;;;;;16.70;2.70;;;9.90;99.90;;;;;;5014531;28;20065;-67
2024/01/03 06:48:40;;;;;;;17.30;3.72;;;9.90;99.90;;;;;;5014032;28;20033;-66
2024/01/03 06:51:06;;;;;;;15.35;3.17;;;10.00;99.90;;;;;;5014227;28;20041;-66
2024/01/03 06:53:33;;;;;;;13.90;2.33;;;10.00;99.90;;;;;;5014568;28;20084;-66
2024/01/03 06:55:59;;;;;;;17.58;3.13;;;10.00;99.90;;;;;;5013653;28;20517;-66
2024/01/03 06:58:25;;;;;;;16.42;3.25;;;10.00;99.90;;;;;;5013972;28;20029;-66
2024/01/03 07:00:50;;;;;;;17.75;3.05;;;9.90;99.90;;;;;;5013791;28;20042;-66
2024/01/03 07:03:16;;;;;;;18.27;3.05;;;9.90;99.90;;;;;;5014411;28;20046;-66
2024/01/03 07:05:42;;;;;;;17.52;3.30;;;9.90;99.90;;;;;;5014003;28;20116;-66
2024/01/03 07:08:08;;;;;;;16.77;3.15;;;9.90;99.90;;;;;;5013843;28;20034;-67
2024/01/03 07:10:37;;;;;;;20.90;3.28;;;9.90;99.90;;;;;;5011683;28;20056;-67
2024/01/03 07:13:10;;;;;;;15.00;2.80;;;10.00;99.90;;;;;;5004832;28;20046;-66
2024/01/03 07:15:38;;;;;;;12.18;2.10;;;9.90;99.90;;;;;;5002107;28;20053;-66
2024/01/03 07:18:08;;;;;;;21.63;3.20;;;10.00;99.90;;;;;;5013299;28;20046;-66
2024/01/03 07:20:36;;;;;;;20.20;3.53;;;10.00;99.90;;;;;;5004374;28;20070;-66
2024/01/03 07:23:02;;;;;;;17.60;3.63;;;10.00;99.90;;;;;;5009170;28;20112;-66
2024/01/03 07:25:28;;;;;;;19.88;3.08;;;10.00;99.90;;;;;;5004527;28;20034;-66
2024/01/03 07:28:02;;;;;;;25.98;3.83;;;9.90;99.90;;;;;;5005446;28;20498;-66
2024/01/03 07:30:31;;;;;;;20.98;3.70;;;9.90;99.90;;;;;;5008204;28;20038;-66
2024/01/03 07:33:00;;;;;;;16.05;2.83;;;9.90;99.90;;;;;;5008928;28;20271;-66
2024/01/03 07:35:25;;;;;;;24.10;3.55;;;9.80;99.90;;;;;;5007881;28;20041;-66
2024/01/03 07:37:51;;;;;;;20.55;3.55;;;9.80;99.90;;;;;;5011877;28;20045;-66
2024/01/03 07:40:17;;;;;;;16.65;3.17;;;9.80;99.90;;;;;;5007711;28;20033;-65
2024/01/03 07:42:42;;;;;;;17.05;2.97;;;9.80;99.90;;;;;;5013351;28;20038;-66
2024/01/03 07:45:08;;;;;;;15.02;2.95;;;9.80;99.90;;;;;;5011902;28;20092;-66
2024/01/03 07:47:34;;;;;;;15.15;2.88;;;9.80;99.90;;;;;;5008510;28;20038;-66
2024/01/03 07:50:00;;;;;;;14.63;3.13;;;9.80;99.90;;;;;;5004924;28;20041;-66
2024/01/03 07:52:26;;;;;;;12.98;2.47;;;9.80;99.90;;;;;;5007203;28;20049;-66
2024/01/03 07:54:51;;;;;;;12.55;2.53;;;9.80;99.90;;;;;;5011046;28;20481;-66
2024/01/03 07:57:17;;;;;;;23.85;3.45;;;9.80;99.90;;;;;;5001545;28;20163;-66
2024/01/03 07:59:46;;;;;;;16.25;2.47;;;9.80;99.90;;;;;;5011359;28;20053;-66
2024/01/03 08:02:15;;;;;;;17.67;3.17;;;9.90;99.90;;;;;;5010355;28;20037;-66
2024/01/03 08:04:42;;;;;;;17.88;2.67;;;9.90;99.90;;;;;;5010071;28;20494;-66
2024/01/03 08:07:08;;;;;;;17.73;3.33;;;9.80;99.90;;;;;;5006641;28;20042;-66
2024/01/03 08:09:34;;;;;;;15.13;3.47;;;9.80;99.90;;;;;;5011823;28;20512;-66
2024/01/03 08:12:01;;;;;;;18.30;2.97;;;9.80;99.90;;;;;;5011330;28;20501;-66
2024/01/03 08:14:26;;;;;;;14.23;2.83;;;9.80;99.90;;;;;;5007275;28;20038;-66
2024/01/03 08:16:52;;;;;;;19.52;4.10;;;9.80;99.90;;;;;;5008871;28;20100;-66
2024/01/03 08:19:18;;;;;;;25.92;4.15;;;9.80;99.90;;;;;;5000946;28;20047;-66
2024/01/03 08:21:44;;;;;;;17.08;2.90;;;9.80;99.90;;;;;;5004275;28;20120;-66
2024/01/03 08:24:09;;;;;;;16.88;3.22;;;9.80;99.90;;;;;;5011930;28;20122;-66
2024/01/03 08:26:35;;;;;;;16.40;2.88;;;9.80;99.90;;;;;;5009220;28;20049;-66
2024/01/03 08:29:00;;;;;;;18.67;3.53;;;9.90;99.90;;;;;;5011691;28;20513;-66
2024/01/03 08:31:26;;;;;;;13.60;3.10;;;9.90;99.90;;;;;;5008718;28;20041;-66
2024/01/03 08:33:51;;;;;;;16.25;3.05;;;9.80;99.90;;;;;;5002252;28;20411;-66
2024/01/03 08:36:17;;;;;;;16.00;2.50;;;9.90;99.90;;;;;;5001734;28;20434;-66
2024/01/03 08:38:43;;;;;;;10.63;2.45;;;9.80;99.90;;;;;;5008469;28;20577;-66
2024/01/03 08:41:16;;;;;;;15.18;2.63;;;9.90;99.90;;;;;;4995487;28;20113;-66
2024/01/03 08:43:42;;;;;;;17.52;3.10;;;9.90;99.90;;;;;;5008623;28;20050;-66
2024/01/03 08:46:08;;;;;;;19.83;3.13;;;9.90;99.90;;;;;;4998966;28;20053;-66
2024/01/03 08:48:34;;;;;;;15.52;2.70;;;9.90;99.90;;;;;;5003148;28;20077;-66
2024/01/03 08:51:00;;;;;;;19.33;3.38;;;9.90;99.90;;;;;;4999457;28;20104;-66
2024/01/03 08:53:25;;;;;;;19.95;2.92;;;10.00;99.90;;;;;;5001845;28;20037;-66
2024/01/03 08:55:51;;;;;;;22.10;4.03;;;9.90;99.90;;;;;;5009030;28;20045;-66
2024/01/03 08:58:16;;;;;;;17.85;3.92;;;9.90;99.90;;;;;;5004770;28;20038;-67
2024/01/03 09:00:44;;;;;;;19.83;3.55;;;9.80;99.90;;;;;;5010831;28;20034;-66
2024/01/03 09:03:10;;;;;;;18.15;3.35;;;9.80;99.90;;;;;;5007953;28;20041;-66
2024/01/03 09:05:35;;;;;;;22.50;3.65;;;9.70;99.90;;;;;;5011088;28;20402;-67
2024/01/03 09:08:01;;;;;;;18.90;3.22;;;9.60;99.90;;;;;;5009555;28;20030;-67
2024/01/03 09:10:27;;;;;;;25.85;3.60;;;9.60;99.90;;;;;;5005558;28;20490;-67
2024/01/03 09:12:52;;;;;;;20.77;3.85;;;9.60;99.90;;;;;;4998158;28;20042;-67
2024/01/03 09:15:18;;;;;;;30.73;4.63;;;9.50;99.90;;;;;;5002841;28;20032;-67
2024/01/03 09:17:44;;;;;;;22.98;3.92;;;9.60;99.90;;;;;;4997434;28;20097;-67
2024/01/03 09:20:12;;;;;;;18.45;3.92;;;9.60;99.90;;;;;;5006392;28;20498;-67
2024/01/03 09:22:38;;;;;;;23.17;3.63;;;9.60;99.90;;;;;;5002487;28;20414;-67
2024/01/03 09:25:05;;;;;;;20.30;3.78;;;9.60;99.90;;;;;;4997823;28;20101;-67
2024/01/03 09:27:30;;;;;;;18.67;3.28;;;9.70;99.90;;;;;;4998920;28;20072;-67
2024/01/03 09:30:00;;;;;;;17.00;3.28;;;9.70;99.90;;;;;;4996399;28;20042;-66
2024/01/03 09:32:29;;;;;;;14.88;3.28;;;9.70;99.90;;;;;;4999589;28;20121;-66
2024/01/03 09:34:54;;;;;;;18.50;2.70;;;9.80;99.90;;;;;;4997994;28;20129;-66
2024/01/03 09:37:24;;;;;;;13.68;2.60;;;9.80;99.90;;;;;;5003428;28;20049;-66
2024/01/03 09:39:56;;;;;;;16.20;3.13;;;9.80;99.90;;;;;;5007466;28;20084;-66
2024/01/03 09:42:25;;;;;;;18.02;2.88;;;9.80;99.90;;;;;;5005803;28;20038;-66
2024/01/03 09:44:51;;;;;;;20.05;3.47;;;9.90;99.90;;;;;;5023171;28;20041;-66
2024/01/03 09:47:17;;;;;;;16.65;2.55;;;9.80;99.90;;;;;;4995000;28;20085;-66
2024/01/03 09:49:45;;;;;;;17.15;2.78;;;9.90;99.90;;;;;;4995730;28;20089;-66
2024/01/03 09:52:12;;;;;;;14.60;2.80;;;9.90;99.90;;;;;;5002191;28;20120;-66
2024/01/03 09:54:39;;;;;;;8.80;1.92;;;9.90;99.90;;;;;;5001499;28;20593;-66
2024/01/03 09:57:07;;;;;;;16.27;2.60;;;9.90;99.90;;;;;;5005599;28;20069;-66
2024/01/03 09:59:34;;;;;;;12.00;2.55;;;10.00;99.90;;;;;;5005226;28;20046;-66
2024/01/03 10:01:59;;;;;;;15.18;3.30;;;9.90;99.90;;;;;;5000145;28;20130;-66
2024/01/03 10:04:26;;;;;;;13.27;2.30;;;9.90;99.90;;;;;;5009980;28;20108;-66
2024/01/03 10:06:53;;;;;;;11.27;2.30;;;9.90;99.90;;;;;;5014388;28;20122;-67
2024/01/03 10:09:19;;;;;;;16.55;2.20;;;9.90;99.90;;;;;;4989766;28;20133;-67
2024/01/03 10:11:45;;;;;;;13.27;2.70;;;9.90;99.90;;;;;;5014338;28;20117;-66
2024/01/03 10:14:19;;;;;;;13.07;2.53;;;9.90;99.90;;;;;;5014214;28;20524;-66
2024/01/03 10:16:45;;;;;;;11.10;2.13;;;9.90;99.90;;;;;;5014881;28;20038;-66
2024/01/03 10:19:16;;;;;;;18.27;3.22;;;9.90;99.90;;;;;;5006962;28;20052;-67
2024/01/03 10:21:54;;;;;;;16.23;2.90;;;9.90;99.90;;;;;;5011737;28;20045;-66
2024/01/03 10:24:22;;;;;;;16.70;3.00;;;9.90;99.90;;;;;;5014715;28;20375;-66
2024/01/03 10:26:48;;;;;;;13.65;2.20;;;10.00;99.90;;;;;;5006371;28;20093;-66
2024/01/03 10:29:18;;;;;;;10.32;2.22;;;9.90;99.90;;;;;;5014331;28;20044;-66
2024/01/03 10:31:48;;;;;;;12.20;2.17;;;9.90;99.90;;;;;;5012554;28;20034;-66
2024/01/03 10:34:22;;;;;;;14.05;2.60;;;9.90;99.90;;;;;;5012922;28;20038;-66
2024/01/03 10:36:49;;;;;;;16.92;3.13;;;9.90;99.90;;;;;;5010484;28;20034;-66
2024/01/03 10:39:16;;;;;;;11.40;2.58;;;9.90;99.90;;;;;;5009097;28;20486;-66
2024/01/03 10:41:45;;;;;;;16.27;2.72;;;9.90;99.90;;;;;;4979471;28;20038;-66
2024/01/03 10:44:13;;;;;;;17.38;3.22;;;9.90;99.90;;;;;;5014823;28;20042;-66
2024/01/03 10:46:41;;;;;;;14.30;2.58;;;9.90;99.90;;;;;;5007962;28;20066;-66
2024/01/03 10:49:07;;;;;;;14.10;2.80;;;9.90;99.90;;;;;;5014433;28;20038;-66
2024/01/03 10:51:39;;;;;;;17.77;2.85;;;9.90;99.90;;;;;;5011754;28;20079;-67
2024/01/03 10:54:07;;;;;;;13.27;2.53;;;9.90;99.90;;;;;;5003747;28;20084;-67
2024/01/03 10:56:35;;;;;;;15.05;3.50;;;9.90;99.90;;;;;;5011042;28;20042;-66
2024/01/03 10:59:02;;;;;;;21.52;3.03;;;10.00;99.90;;;;;;5007254;28;20061;-66
2024/01/03 11:01:32;;;;;;;15.07;2.95;;;10.00;99.90;;;;;;5009442;28;20042;-66
2024/01/03 11:04:11;;;;;;;20.30;3.13;;;10.00;99.90;;;;;;5010075;28;20036;-66
2024/01/03 11:06:55;;;;;;;17.77;3.38;;;10.00;99.90;;;;;;5011993;28;20494;-66
2024/01/03 11:09:21;;;;;;;21.57;3.90;;;10.00;99.90;;;;;;5012132;28;20490;-66
2024/01/03 11:11:47;;;;;;;18.48;3.10;;;10.00;99.90;;;;;;5012696;28;20309;-66
2024/01/03 11:14:19;;;;;;;23.73;3.33;;;10.00;99.90;;;;;;5007991;28;20077;-66
2024/01/03 11:16:45;;;;;;;23.38;3.42;;;10.00;99.90;;;;;;5002294;28;20042;-66
2024/01/03 11:19:11;;;;;;;18.42;3.30;;;10.00;99.90;;;;;;5009189;28;20504;-66
2024/01/03 11:21:39;;;;;;;27.48;4.25;;;10.00;99.90;;;;;;5004044;28;20065;-66
2024/01/03 11:24:34;;;;;;;19.63;3.28;;;9.90;99.90;;;;;;5004213;28;20050;-66
2024/01/03 11:27:17;;;;;;;21.38;4.18;;;9.90;99.90;;;;;;4995364;28;20075;-66
2024/01/03 11:29:44;;;;;;;24.55;4.20;;;9.90;99.90;;;;;;4998576;28;20077;-66
2024/01/03 11:32:14;;;;;;;18.20;4.07;;;9.80;99.90;;;;;;5012002;28;20041;-67
2024/01/03 11:34:50;;;;;;;10.15;2.25;;;9.80;99.90;;;;;;5015715;28;20038;-67
2024/01/03 11:37:18;;;;;;;11.65;1.92;;;9.80;99.90;;;;;;5008633;28;20073;-67
2024/01/03 11:39:52;;;;;;;8.30;1.98;;;9.70;99.90;;;;;;5012190;28;20144;-67
2024/01/03 11:42:38;;;;;;;12.85;2.30;;;9.70;99.90;;;;;;5091919;22;20139;-72
2024/01/03 11:45:07;;;;;;;11.77;1.85;;;9.70;99.90;;;;;;5069841;28;20154;-72
2024/01/03 11:47:35;;;;;;;11.43;2.42;;;9.70;99.90;;;;;;5068285;28;20046;-72
2024/01/03 11:50:03;;;;;;;14.00;2.22;;;9.60;99.90;;;;;;5066211;28;20052;-72
2024/01/03 11:52:32;;;;;;;14.63;2.75;;;9.70;99.90;;;;;;5070320;28;20036;-72
2024/01/03 11:55:03;;;;;;;11.95;2.50;;;9.70;99.90;;;;;;5072227;28;20070;-72
2024/01/03 11:57:30;;;;;;;10.40;2.33;;;9.70;99.90;;;;;;5071655;28;20040;-72
2024/01/03 12:00:02;;;;;;;11.88;2.55;;;9.70;99.90;;;;;;5071398;28;20402;-72
2024/01/03 12:02:28;;;;;;;13.00;2.60;;;9.70;99.90;;;;;;5064531;28;20055;-72
2024/01/03 12:05:00;;;;;;;14.13;2.63;;;9.70;99.90;;;;;;5072745;28;20041;-72
2024/01/03 12:07:31;;;;;;;14.57;2.90;;;9.70;99.90;;;;;;5072439;28;20039;-72
2024/01/03 12:09:57;;;;;;;14.07;2.63;;;9.70;99.90;;;;;;5072849;28;20123;-72
2024/01/03 12:12:23;;;;;;;12.60;2.35;;;9.70;99.90;;;;;;5071958;28;20040;-72
2024/01/03 12:14:53;;;;;;;12.98;2.55;;;9.70;99.90;;;;;;5071303;28;20040;-72
2024/01/03 12:17:32;;;;;;;9.52;2.20;;;9.70;99.90;;;;;;5066565;28;20033;-72
2024/01/03 12:20:15;;;;;;;12.90;2.40;;;9.70;99.90;;;;;;5051623;28;20044;-72
2024/01/03 12:22:41;;;;;;;10.23;2.30;;;9.70;99.90;;;;;;5071654;28;20490;-72
2024/01/03 12:25:15;;;;;;;12.18;2.42;;;9.70;99.90;;;;;;5069132;28;20036;-72
2024/01/03 12:27:41;;;;;;;11.55;2.13;;;9.70;99.90;;;;;;5068908;28;20079;-73
2024/01/03 12:30:14;;;;;;;10.30;2.30;;;9.70;99.90;;;;;;5069306;28;20072;-72
2024/01/03 12:32:40;;;;;;;11.93;2.58;;;9.60;99.90;;;;;;5067275;28;20079;-72
2024/01/03 12:35:06;;;;;;;12.77;2.33;;;9.60;99.90;;;;;;5068496;28;20037;-72
2024/01/03 12:37:32;;;;;;;9.98;2.20;;;9.60;99.90;;;;;;5071442;28;20040;-72
2024/01/03 12:39:57;;;;;;;13.05;2.30;;;9.60;99.90;;;;;;5071137;28;20044;-73
2024/01/03 12:42:23;;;;;;;9.23;1.70;;;9.50;99.90;;;;;;5069910;28;20040;-73
2024/01/03 12:44:50;;;;;;;10.73;1.73;;;9.50;99.90;;;;;;5062994;28;20028;-73
2024/01/03 12:47:15;;;;;;;8.40;1.92;;;9.50;99.90;;;;;;5072160;28;20044;-73